Terminal Aerodrome Forecast
Issued by NWS Jackson, MS

Home | Current Version | Previous Version | Text Only | Print | Product List | Glossary On
Versions: 1 2 3 4 5 6 7 8 9 10 11 12
000
FTUS44 KJAN 242334
TAFHBG
TAF
KHBG 242334Z 2500/2524 17003KT P6SM FEW040 FEW250
     FM250930 17003KT 5SM BR SCT015 SCT250
     FM251100 16004KT 2SM BR BKN006
     FM251430 16008KT P6SM FEW015 SCT030 BKN250=

USA.gov is the U.S. government's official web portal to all federal, state and local government web resources and services.